PGT1768 EKCH-LTAC
Flight info
| Callsign | PGT1768 |
|---|---|
| Flight time | 2h 53m |
| Altitude | 37000 |
| Route | SIMEG Z493 XELOL DCT BAREX DCT KELEL DCT KEKED DCT BADOR DCT RONBU DCT RIXEN UL605 YAVRU |
| Aircraft | A320/M-SDE3FGHIRWY/LB1 |
Departure
| Time | 2026-05-05 16:13 |
|---|---|
| Airport | Copenhagen Kastrup Airport (EKCH) |
Arrival
| Time | 2026-05-05 19:06 |
|---|---|
| Airport | Esenboğa International Airport (LTAC) |
| Time | Latitude | Longitude | Altitude | Speed | Heading |
|---|---|---|---|---|---|
| 2026-05-05 15:53 | 55.62608 | 12.64901 | 24 ft | 0 kts | 92° |
| 2026-05-05 16:01 | 55.62608 | 12.64872 | 24 ft | 2 kts | 93° |
| 2026-05-05 16:01 | 55.62609 | 12.64843 | 24 ft | 2 kts | 96° |
| 2026-05-05 16:02 | 55.62611 | 12.64814 | 24 ft | 2 kts | 102° |
| 2026-05-05 16:02 | 55.62616 | 12.64786 | 25 ft | 2 kts | 132° |
| 2026-05-05 16:02 | 55.62629 | 12.64775 | 28 ft | 1 kts | 192° |
| 2026-05-05 16:02 | 55.62632 | 12.64777 | 27 ft | 0 kts | 191° |
| 2026-05-05 16:04 | 55.62627 | 12.64774 | 28 ft | 2 kts | 192° |
| 2026-05-05 16:04 | 55.62603 | 12.64768 | 28 ft | 8 kts | 185° |
| 2026-05-05 16:04 | 55.62547 | 12.64770 | 25 ft | 7 kts | 178° |
| 2026-05-05 16:04 | 55.62500 | 12.64773 | 24 ft | 6 kts | 178° |
| 2026-05-05 16:05 | 55.62461 | 12.64775 | 24 ft | 5 kts | 176° |
| 2026-05-05 16:05 | 55.62431 | 12.64778 | 24 ft | 4 kts | 177° |
| 2026-05-05 16:05 | 55.62403 | 12.64781 | 24 ft | 5 kts | 177° |
| 2026-05-05 16:05 | 55.62358 | 12.64782 | 24 ft | 7 kts | 180° |
| 2026-05-05 16:06 | 55.62286 | 12.64786 | 24 ft | 11 kts | 174° |
| 2026-05-05 16:06 | 55.62218 | 12.64780 | 24 ft | 9 kts | 204° |
| 2026-05-05 16:06 | 55.62160 | 12.64712 | 26 ft | 15 kts | 214° |
| 2026-05-05 16:06 | 55.62075 | 12.64614 | 23 ft | 14 kts | 212° |
| 2026-05-05 16:07 | 55.61995 | 12.64523 | 24 ft | 13 kts | 208° |
| 2026-05-05 16:07 | 55.61913 | 12.64505 | 24 ft | 11 kts | 171° |
| 2026-05-05 16:07 | 55.61820 | 12.64534 | 24 ft | 18 kts | 169° |
| 2026-05-05 16:07 | 55.61705 | 12.64570 | 24 ft | 16 kts | 177° |
| 2026-05-05 16:08 | 55.61611 | 12.64490 | 24 ft | 14 kts | 213° |
| 2026-05-05 16:08 | 55.61531 | 12.64396 | 24 ft | 13 kts | 213° |
| 2026-05-05 16:08 | 55.61458 | 12.64313 | 24 ft | 12 kts | 213° |
| 2026-05-05 16:08 | 55.61354 | 12.64194 | 25 ft | 22 kts | 213° |
| 2026-05-05 16:09 | 55.61230 | 12.64050 | 25 ft | 20 kts | 213° |
| 2026-05-05 16:09 | 55.61115 | 12.63919 | 26 ft | 19 kts | 213° |
| 2026-05-05 16:09 | 55.61011 | 12.63799 | 25 ft | 17 kts | 213° |
| 2026-05-05 16:09 | 55.60904 | 12.63676 | 26 ft | 19 kts | 213° |
| 2026-05-05 16:10 | 55.60796 | 12.63553 | 25 ft | 18 kts | 212° |
| 2026-05-05 16:10 | 55.60696 | 12.63439 | 24 ft | 16 kts | 213° |
| 2026-05-05 16:10 | 55.60590 | 12.63290 | 24 ft | 23 kts | 221° |
| 2026-05-05 16:10 | 55.60484 | 12.63127 | 24 ft | 14 kts | 217° |
| 2026-05-05 16:11 | 55.60404 | 12.63157 | 24 ft | 12 kts | 128° |
| 2026-05-05 16:11 | 55.60381 | 12.63413 | 28 ft | 12 kts | 37° |
| 2026-05-05 16:12 | 55.60634 | 12.63803 | 28 ft | 91 kts | 41° |
| 2026-05-05 16:12 | 55.62247 | 12.66259 | 469 ft | 195 kts | 38° |
| 2026-05-05 16:13 | 55.65046 | 12.72947 | 3002 ft | 259 kts | 85° |
| 2026-05-05 16:13 | 55.64593 | 12.76082 | 3904 ft | 273 kts | 120° |
| 2026-05-05 16:13 | 55.63365 | 12.78672 | 4845 ft | 278 kts | 132° |
| 2026-05-05 16:14 | 55.60671 | 12.83718 | 6659 ft | 286 kts | 135° |
| 2026-05-05 16:14 | 55.57903 | 12.88895 | 8388 ft | 293 kts | 135° |
| 2026-05-05 16:15 | 55.55056 | 12.94228 | 10045 ft | 303 kts | 136° |
| 2026-05-05 16:15 | 55.51921 | 13.00097 | 11146 ft | 355 kts | 136° |
| 2026-05-05 16:16 | 55.48942 | 13.05671 | 12221 ft | 383 kts | 136° |
| 2026-05-05 16:16 | 55.45231 | 13.12630 | 14129 ft | 397 kts | 137° |
| 2026-05-05 16:17 | 55.41397 | 13.19801 | 15872 ft | 407 kts | 137° |
| 2026-05-05 16:17 | 55.39437 | 13.23442 | 16685 ft | 412 kts | 137° |
| 2026-05-05 16:18 | 55.35452 | 13.30814 | 18150 ft | 420 kts | 137° |
| 2026-05-05 16:18 | 55.33430 | 13.34551 | 18765 ft | 424 kts | 137° |
| 2026-05-05 16:18 | 55.29328 | 13.42127 | 19899 ft | 431 kts | 137° |
| 2026-05-05 16:19 | 55.27250 | 13.45950 | 20432 ft | 435 kts | 137° |
| 2026-05-05 16:19 | 55.25155 | 13.49798 | 20953 ft | 438 kts | 137° |
| 2026-05-05 16:19 | 55.21036 | 13.57788 | 21928 ft | 445 kts | 134° |
| 2026-05-05 16:20 | 55.16997 | 13.66116 | 22829 ft | 452 kts | 134° |
| 2026-05-05 16:20 | 55.12893 | 13.74531 | 23641 ft | 458 kts | 135° |
| 2026-05-05 16:21 | 55.08683 | 13.82973 | 24341 ft | 463 kts | 135° |
| 2026-05-05 16:22 | 55.02261 | 13.95693 | 25383 ft | 470 kts | 136° |
| 2026-05-05 16:22 | 54.97943 | 14.04231 | 26031 ft | 475 kts | 136° |
| 2026-05-05 16:23 | 54.93747 | 14.12533 | 26623 ft | 479 kts | 136° |
| 2026-05-05 16:23 | 54.91392 | 14.16710 | 26913 ft | 476 kts | 144° |
| 2026-05-05 16:23 | 54.86087 | 14.23473 | 27488 ft | 475 kts | 151° |
| 2026-05-05 16:24 | 54.83363 | 14.26756 | 27775 ft | 477 kts | 152° |
| 2026-05-05 16:24 | 54.80635 | 14.30043 | 28092 ft | 478 kts | 152° |
| 2026-05-05 16:24 | 54.75212 | 14.36546 | 28915 ft | 476 kts | 153° |
| 2026-05-05 16:25 | 54.72457 | 14.39719 | 29323 ft | 474 kts | 154° |
| 2026-05-05 16:25 | 54.66923 | 14.45910 | 30114 ft | 473 kts | 154° |
| 2026-05-05 16:25 | 54.64155 | 14.48982 | 30467 ft | 472 kts | 154° |
| 2026-05-05 16:26 | 54.58646 | 14.55117 | 31181 ft | 470 kts | 154° |
| 2026-05-05 16:26 | 54.53175 | 14.61255 | 31930 ft | 468 kts | 154° |
| 2026-05-05 16:27 | 54.50448 | 14.64317 | 32301 ft | 467 kts | 154° |
| 2026-05-05 16:27 | 54.47733 | 14.67355 | 32670 ft | 466 kts | 154° |
| 2026-05-05 16:27 | 54.45017 | 14.70382 | 33039 ft | 464 kts | 154° |
| 2026-05-05 16:27 | 54.42301 | 14.73402 | 33392 ft | 463 kts | 154° |
| 2026-05-05 16:28 | 54.39604 | 14.76397 | 33772 ft | 462 kts | 154° |
| 2026-05-05 16:28 | 54.36899 | 14.79394 | 34096 ft | 461 kts | 154° |
| 2026-05-05 16:28 | 54.34207 | 14.82372 | 34393 ft | 461 kts | 154° |
| 2026-05-05 16:28 | 54.31515 | 14.85342 | 34671 ft | 461 kts | 154° |
| 2026-05-05 16:29 | 54.28818 | 14.88314 | 34938 ft | 461 kts | 154° |
| 2026-05-05 16:29 | 54.26133 | 14.91314 | 35213 ft | 461 kts | 152° |
| 2026-05-05 16:29 | 54.23497 | 14.94462 | 35471 ft | 463 kts | 150° |
| 2026-05-05 16:29 | 54.20902 | 14.97730 | 35717 ft | 464 kts | 149° |
| 2026-05-05 16:30 | 54.18327 | 15.01055 | 35963 ft | 464 kts | 149° |
| 2026-05-05 16:30 | 54.15763 | 15.04369 | 36202 ft | 463 kts | 149° |
| 2026-05-05 16:30 | 54.13182 | 15.07667 | 36439 ft | 462 kts | 149° |
| 2026-05-05 16:30 | 54.10596 | 15.10920 | 36674 ft | 462 kts | 149° |
| 2026-05-05 16:31 | 54.08004 | 15.14131 | 36855 ft | 462 kts | 149° |
| 2026-05-05 16:31 | 54.05390 | 15.17341 | 36904 ft | 464 kts | 149° |
| 2026-05-05 16:31 | 54.00138 | 15.23762 | 36906 ft | 465 kts | 149° |
| 2026-05-05 16:32 | 53.94889 | 15.30201 | 36901 ft | 465 kts | 149° |
| 2026-05-05 16:32 | 53.89647 | 15.36636 | 36902 ft | 465 kts | 149° |
| 2026-05-05 16:33 | 53.84400 | 15.43057 | 36896 ft | 465 kts | 149° |
| 2026-05-05 16:33 | 53.79153 | 15.49435 | 36892 ft | 465 kts | 149° |
| 2026-05-05 16:34 | 53.73894 | 15.55807 | 36884 ft | 465 kts | 149° |
| 2026-05-05 16:34 | 53.68668 | 15.62126 | 36885 ft | 465 kts | 149° |
| 2026-05-05 16:35 | 53.63409 | 15.68468 | 36879 ft | 464 kts | 149° |
| 2026-05-05 16:35 | 53.58154 | 15.74796 | 36881 ft | 464 kts | 149° |
| 2026-05-05 16:36 | 53.52889 | 15.81100 | 36873 ft | 464 kts | 149° |
| 2026-05-05 16:36 | 53.47619 | 15.87380 | 36883 ft | 464 kts | 149° |
| 2026-05-05 16:37 | 53.42346 | 15.93638 | 36879 ft | 464 kts | 149° |
| 2026-05-05 16:37 | 53.37073 | 15.99903 | 36863 ft | 464 kts | 149° |
| 2026-05-05 16:38 | 53.31807 | 16.06151 | 36857 ft | 464 kts | 149° |
| 2026-05-05 16:38 | 53.26531 | 16.12381 | 36857 ft | 464 kts | 149° |
| 2026-05-05 16:39 | 53.21252 | 16.18582 | 36856 ft | 464 kts | 149° |
| 2026-05-05 16:39 | 53.15965 | 16.24775 | 36861 ft | 464 kts | 149° |
| 2026-05-05 16:40 | 53.10680 | 16.30953 | 36853 ft | 464 kts | 149° |
| 2026-05-05 16:40 | 53.05394 | 16.37118 | 36848 ft | 464 kts | 149° |
| 2026-05-05 16:41 | 53.00106 | 16.43270 | 36849 ft | 464 kts | 149° |
| 2026-05-05 16:41 | 52.94810 | 16.49403 | 36842 ft | 464 kts | 149° |
| 2026-05-05 16:42 | 52.89510 | 16.55524 | 36834 ft | 464 kts | 149° |
| 2026-05-05 16:42 | 52.84213 | 16.61619 | 36835 ft | 464 kts | 149° |
| 2026-05-05 16:43 | 52.78916 | 16.67701 | 36827 ft | 464 kts | 149° |
| 2026-05-05 16:43 | 52.73607 | 16.73771 | 36829 ft | 464 kts | 149° |
| 2026-05-05 16:44 | 52.68300 | 16.79819 | 36834 ft | 464 kts | 150° |
| 2026-05-05 16:44 | 52.62992 | 16.85853 | 36829 ft | 464 kts | 149° |
| 2026-05-05 16:45 | 52.57721 | 16.91846 | 36825 ft | 464 kts | 149° |
| 2026-05-05 16:45 | 52.52405 | 16.97863 | 36824 ft | 464 kts | 150° |
| 2026-05-05 16:46 | 52.47089 | 17.03851 | 36822 ft | 464 kts | 150° |
| 2026-05-05 16:46 | 52.41763 | 17.09830 | 36823 ft | 464 kts | 149° |
| 2026-05-05 16:47 | 52.36437 | 17.15802 | 36820 ft | 464 kts | 149° |
| 2026-05-05 16:47 | 52.31104 | 17.21763 | 36819 ft | 464 kts | 149° |
| 2026-05-05 16:48 | 52.25767 | 17.27702 | 36812 ft | 464 kts | 149° |
| 2026-05-05 16:48 | 52.20430 | 17.33630 | 36812 ft | 464 kts | 149° |
| 2026-05-05 16:49 | 52.15093 | 17.39544 | 36808 ft | 464 kts | 149° |
| 2026-05-05 16:49 | 52.09750 | 17.45439 | 36807 ft | 464 kts | 149° |
| 2026-05-05 16:50 | 52.04402 | 17.51326 | 36806 ft | 464 kts | 149° |
| 2026-05-05 16:50 | 51.99059 | 17.57196 | 36805 ft | 464 kts | 149° |
| 2026-05-05 16:51 | 51.93705 | 17.63059 | 36809 ft | 464 kts | 149° |
| 2026-05-05 16:51 | 51.88351 | 17.68891 | 36810 ft | 464 kts | 149° |
| 2026-05-05 16:52 | 51.82991 | 17.74713 | 36805 ft | 463 kts | 149° |
| 2026-05-05 16:52 | 51.77640 | 17.80514 | 36800 ft | 463 kts | 149° |
| 2026-05-05 16:53 | 51.72288 | 17.86310 | 36796 ft | 463 kts | 149° |
| 2026-05-05 16:53 | 51.66934 | 17.92090 | 36794 ft | 463 kts | 149° |
| 2026-05-05 16:54 | 51.61584 | 17.97846 | 36788 ft | 462 kts | 149° |
| 2026-05-05 16:54 | 51.56230 | 18.03580 | 36786 ft | 462 kts | 149° |
| 2026-05-05 16:55 | 51.50877 | 18.09307 | 36782 ft | 462 kts | 149° |
| 2026-05-05 16:55 | 51.45520 | 18.15013 | 36771 ft | 462 kts | 149° |
| 2026-05-05 16:56 | 51.40164 | 18.20712 | 36767 ft | 462 kts | 149° |
| 2026-05-05 16:56 | 51.34806 | 18.26404 | 36767 ft | 462 kts | 149° |
| 2026-05-05 16:57 | 51.30341 | 18.31121 | 36764 ft | 462 kts | 149° |
| 2026-05-05 16:57 | 51.24969 | 18.36772 | 36764 ft | 462 kts | 149° |
| 2026-05-05 16:58 | 51.19592 | 18.42427 | 36763 ft | 463 kts | 149° |
| 2026-05-05 16:58 | 51.14215 | 18.48077 | 36761 ft | 463 kts | 149° |
| 2026-05-05 16:59 | 51.08831 | 18.53699 | 36780 ft | 463 kts | 149° |
| 2026-05-05 16:59 | 51.03444 | 18.59301 | 36783 ft | 463 kts | 149° |
| 2026-05-05 17:00 | 50.98059 | 18.64894 | 36783 ft | 463 kts | 149° |
| 2026-05-05 17:00 | 50.92673 | 18.70489 | 36785 ft | 462 kts | 149° |
| 2026-05-05 17:01 | 50.87268 | 18.76015 | 36780 ft | 461 kts | 150° |
| 2026-05-05 17:01 | 50.81771 | 18.81218 | 36779 ft | 460 kts | 152° |
| 2026-05-05 17:02 | 50.76226 | 18.86299 | 36792 ft | 460 kts | 152° |
| 2026-05-05 17:02 | 50.70703 | 18.91425 | 36795 ft | 460 kts | 151° |
| 2026-05-05 17:03 | 50.65200 | 18.96587 | 36800 ft | 460 kts | 151° |
| 2026-05-05 17:03 | 50.59696 | 19.01742 | 36799 ft | 460 kts | 151° |
| 2026-05-05 17:04 | 50.54216 | 19.06834 | 36807 ft | 460 kts | 151° |
| 2026-05-05 17:04 | 50.48700 | 19.11944 | 36808 ft | 460 kts | 151° |
| 2026-05-05 17:05 | 50.43186 | 19.17045 | 36812 ft | 460 kts | 151° |
| 2026-05-05 17:05 | 50.37665 | 19.22134 | 36815 ft | 460 kts | 151° |
| 2026-05-05 17:06 | 50.32147 | 19.27205 | 36826 ft | 460 kts | 151° |
| 2026-05-05 17:06 | 50.26630 | 19.32270 | 36833 ft | 460 kts | 151° |
| 2026-05-05 17:07 | 50.21108 | 19.37319 | 36842 ft | 459 kts | 151° |
| 2026-05-05 17:07 | 50.15590 | 19.42356 | 36835 ft | 459 kts | 151° |
| 2026-05-05 17:08 | 50.10076 | 19.47373 | 36832 ft | 459 kts | 151° |
| 2026-05-05 17:08 | 50.04561 | 19.52371 | 36825 ft | 458 kts | 152° |
| 2026-05-05 17:09 | 49.99051 | 19.57343 | 36826 ft | 458 kts | 151° |
| 2026-05-05 17:09 | 49.93537 | 19.62322 | 36826 ft | 458 kts | 151° |
| 2026-05-05 17:10 | 49.88031 | 19.67278 | 36835 ft | 458 kts | 151° |
| 2026-05-05 17:10 | 49.82525 | 19.72231 | 36844 ft | 457 kts | 151° |
| 2026-05-05 17:11 | 49.77020 | 19.77157 | 36862 ft | 457 kts | 151° |
| 2026-05-05 17:11 | 49.71504 | 19.82083 | 36877 ft | 457 kts | 151° |
| 2026-05-05 17:12 | 49.65998 | 19.86989 | 36885 ft | 457 kts | 151° |
| 2026-05-05 17:12 | 49.60477 | 19.91881 | 36890 ft | 457 kts | 151° |
| 2026-05-05 17:13 | 49.54959 | 19.96770 | 36900 ft | 458 kts | 151° |
| 2026-05-05 17:13 | 49.49439 | 20.01644 | 36905 ft | 458 kts | 151° |
| 2026-05-05 17:14 | 49.43909 | 20.06512 | 36914 ft | 458 kts | 151° |
| 2026-05-05 17:14 | 49.38381 | 20.11380 | 36922 ft | 458 kts | 151° |
| 2026-05-05 17:15 | 49.32865 | 20.16251 | 36928 ft | 458 kts | 148° |
| 2026-05-05 17:15 | 49.27953 | 20.22467 | 36920 ft | 459 kts | 137° |
| 2026-05-05 17:16 | 49.23298 | 20.29179 | 36919 ft | 460 kts | 137° |
| 2026-05-05 17:16 | 49.18621 | 20.35869 | 36914 ft | 460 kts | 137° |
| 2026-05-05 17:17 | 49.13936 | 20.42556 | 36917 ft | 461 kts | 137° |
| 2026-05-05 17:17 | 49.09244 | 20.49255 | 36919 ft | 462 kts | 137° |
| 2026-05-05 17:18 | 49.04549 | 20.55948 | 36927 ft | 462 kts | 137° |
| 2026-05-05 17:18 | 48.99847 | 20.62626 | 36936 ft | 462 kts | 137° |
| 2026-05-05 17:19 | 48.95165 | 20.69259 | 36935 ft | 463 kts | 137° |
| 2026-05-05 17:19 | 48.90422 | 20.75959 | 36934 ft | 462 kts | 137° |
| 2026-05-05 17:20 | 48.85702 | 20.82605 | 36928 ft | 462 kts | 137° |
| 2026-05-05 17:20 | 48.81008 | 20.89195 | 36914 ft | 462 kts | 137° |
| 2026-05-05 17:21 | 48.76285 | 20.95805 | 36908 ft | 462 kts | 137° |
| 2026-05-05 17:22 | 48.69206 | 21.05697 | 36899 ft | 462 kts | 137° |
| 2026-05-05 17:22 | 48.64482 | 21.12278 | 36900 ft | 461 kts | 137° |
| 2026-05-05 17:23 | 48.59761 | 21.18839 | 36904 ft | 461 kts | 137° |
| 2026-05-05 17:23 | 48.55030 | 21.25372 | 36906 ft | 460 kts | 137° |
| 2026-05-05 17:24 | 48.49956 | 21.31212 | 36909 ft | 459 kts | 150° |
| 2026-05-05 17:24 | 48.44419 | 21.36039 | 36911 ft | 459 kts | 150° |
| 2026-05-05 17:25 | 48.38897 | 21.40877 | 36913 ft | 459 kts | 150° |
| 2026-05-05 17:25 | 48.33370 | 21.45710 | 36918 ft | 459 kts | 150° |
| 2026-05-05 17:26 | 48.27846 | 21.50526 | 36910 ft | 459 kts | 150° |
| 2026-05-05 17:26 | 48.22313 | 21.55321 | 36911 ft | 459 kts | 150° |
| 2026-05-05 17:27 | 48.16775 | 21.60108 | 36911 ft | 459 kts | 150° |
| 2026-05-05 17:27 | 48.11238 | 21.64887 | 36910 ft | 460 kts | 150° |
| 2026-05-05 17:28 | 48.05698 | 21.69668 | 36910 ft | 460 kts | 150° |
| 2026-05-05 17:28 | 48.00154 | 21.74439 | 36930 ft | 460 kts | 151° |
| 2026-05-05 17:29 | 47.94604 | 21.79194 | 36936 ft | 459 kts | 151° |
| 2026-05-05 17:29 | 47.89066 | 21.83920 | 36934 ft | 459 kts | 151° |
| 2026-05-05 17:30 | 47.83562 | 21.88612 | 36931 ft | 458 kts | 151° |
| 2026-05-05 17:30 | 47.78030 | 21.93323 | 36929 ft | 458 kts | 151° |
| 2026-05-05 17:31 | 47.72494 | 21.98024 | 36927 ft | 458 kts | 151° |
| 2026-05-05 17:31 | 47.66945 | 22.02719 | 36925 ft | 459 kts | 151° |
| 2026-05-05 17:32 | 47.61394 | 22.07397 | 36926 ft | 459 kts | 151° |
| 2026-05-05 17:32 | 47.56065 | 22.12578 | 36931 ft | 460 kts | 139° |
| 2026-05-05 17:33 | 47.51356 | 22.19005 | 36931 ft | 460 kts | 137° |
| 2026-05-05 17:33 | 47.46633 | 22.25393 | 36936 ft | 460 kts | 138° |
| 2026-05-05 17:34 | 47.41895 | 22.31767 | 36936 ft | 461 kts | 138° |
| 2026-05-05 17:34 | 47.37163 | 22.38150 | 36945 ft | 461 kts | 137° |
| 2026-05-05 17:35 | 47.32435 | 22.44532 | 36948 ft | 461 kts | 137° |
| 2026-05-05 17:35 | 47.27696 | 22.50894 | 36952 ft | 461 kts | 137° |
| 2026-05-05 17:36 | 47.22946 | 22.57241 | 36952 ft | 461 kts | 137° |
| 2026-05-05 17:36 | 47.18194 | 22.63578 | 36952 ft | 461 kts | 137° |
| 2026-05-05 17:37 | 47.13437 | 22.69909 | 36956 ft | 461 kts | 137° |
| 2026-05-05 17:37 | 47.08709 | 22.76214 | 36959 ft | 462 kts | 137° |
| 2026-05-05 17:38 | 47.03946 | 22.82535 | 36966 ft | 462 kts | 137° |
| 2026-05-05 17:38 | 46.99167 | 22.88843 | 36971 ft | 462 kts | 137° |
| 2026-05-05 17:39 | 46.94383 | 22.95140 | 36976 ft | 463 kts | 137° |
| 2026-05-05 17:39 | 46.89599 | 23.01429 | 36979 ft | 462 kts | 137° |
| 2026-05-05 17:40 | 46.84817 | 23.07720 | 36979 ft | 463 kts | 137° |
| 2026-05-05 17:40 | 46.80028 | 23.14001 | 36982 ft | 463 kts | 137° |
| 2026-05-05 17:41 | 46.76000 | 23.19251 | 36979 ft | 463 kts | 137° |
| 2026-05-05 17:41 | 46.71222 | 23.25463 | 36979 ft | 463 kts | 137° |
| 2026-05-05 17:42 | 46.66405 | 23.31722 | 36979 ft | 464 kts | 137° |
| 2026-05-05 17:42 | 46.61584 | 23.37973 | 36976 ft | 464 kts | 137° |
| 2026-05-05 17:43 | 46.56756 | 23.44215 | 36968 ft | 464 kts | 137° |
| 2026-05-05 17:43 | 46.51930 | 23.50440 | 36970 ft | 464 kts | 137° |
| 2026-05-05 17:44 | 46.47085 | 23.56669 | 36971 ft | 465 kts | 137° |
| 2026-05-05 17:44 | 46.42244 | 23.62889 | 36971 ft | 465 kts | 137° |
| 2026-05-05 17:45 | 46.37403 | 23.69093 | 36969 ft | 465 kts | 137° |
| 2026-05-05 17:45 | 46.32548 | 23.75298 | 36965 ft | 465 kts | 137° |
| 2026-05-05 17:46 | 46.27694 | 23.81484 | 36962 ft | 465 kts | 137° |
| 2026-05-05 17:46 | 46.22835 | 23.87656 | 36961 ft | 465 kts | 137° |
| 2026-05-05 17:47 | 46.17957 | 23.93819 | 36961 ft | 465 kts | 137° |
| 2026-05-05 17:47 | 46.13124 | 23.99937 | 36964 ft | 465 kts | 137° |
| 2026-05-05 17:48 | 46.08252 | 24.06089 | 36968 ft | 465 kts | 137° |
| 2026-05-05 17:48 | 46.03371 | 24.12236 | 36969 ft | 465 kts | 137° |
| 2026-05-05 17:49 | 45.98495 | 24.18359 | 36974 ft | 465 kts | 137° |
| 2026-05-05 17:49 | 45.93612 | 24.24481 | 36974 ft | 466 kts | 137° |
| 2026-05-05 17:50 | 45.88729 | 24.30590 | 36979 ft | 466 kts | 138° |
| 2026-05-05 17:50 | 45.83829 | 24.36696 | 36980 ft | 466 kts | 138° |
| 2026-05-05 17:51 | 45.78933 | 24.42784 | 36981 ft | 466 kts | 138° |
| 2026-05-05 17:51 | 45.74032 | 24.48862 | 36988 ft | 466 kts | 137° |
| 2026-05-05 17:52 | 45.69128 | 24.54928 | 36991 ft | 466 kts | 137° |
| 2026-05-05 17:52 | 45.64251 | 24.60944 | 37000 ft | 466 kts | 138° |
| 2026-05-05 17:53 | 45.59336 | 24.66994 | 36999 ft | 466 kts | 138° |
| 2026-05-05 17:53 | 45.54423 | 24.73042 | 36999 ft | 466 kts | 138° |
| 2026-05-05 17:54 | 45.49491 | 24.79095 | 37009 ft | 467 kts | 138° |
| 2026-05-05 17:54 | 45.44562 | 24.85115 | 37011 ft | 467 kts | 138° |
| 2026-05-05 17:55 | 45.39619 | 24.91143 | 37013 ft | 468 kts | 138° |
| 2026-05-05 17:55 | 45.34671 | 24.97163 | 37018 ft | 468 kts | 138° |
| 2026-05-05 17:56 | 45.29755 | 25.03124 | 37024 ft | 468 kts | 138° |
| 2026-05-05 17:56 | 45.24798 | 25.09117 | 37026 ft | 468 kts | 138° |
| 2026-05-05 17:57 | 45.19843 | 25.15094 | 37026 ft | 467 kts | 138° |
| 2026-05-05 17:57 | 45.14892 | 25.21064 | 37026 ft | 467 kts | 138° |
| 2026-05-05 17:58 | 45.09938 | 25.27036 | 37020 ft | 467 kts | 138° |
| 2026-05-05 17:58 | 45.04974 | 25.32993 | 37018 ft | 468 kts | 138° |
| 2026-05-05 17:59 | 45.00009 | 25.38931 | 37011 ft | 468 kts | 138° |
| 2026-05-05 17:59 | 44.95024 | 25.44885 | 37008 ft | 468 kts | 138° |
| 2026-05-05 18:00 | 44.90052 | 25.50794 | 37003 ft | 468 kts | 138° |
| 2026-05-05 18:00 | 44.85066 | 25.56714 | 36990 ft | 469 kts | 138° |
| 2026-05-05 18:01 | 44.80080 | 25.62636 | 36993 ft | 469 kts | 138° |
| 2026-05-05 18:01 | 44.75083 | 25.68548 | 37000 ft | 470 kts | 138° |
| 2026-05-05 18:02 | 44.70074 | 25.74458 | 37007 ft | 470 kts | 138° |
| 2026-05-05 18:02 | 44.65060 | 25.80366 | 37012 ft | 470 kts | 139° |
| 2026-05-05 18:03 | 44.60040 | 25.86263 | 37013 ft | 470 kts | 139° |
| 2026-05-05 18:03 | 44.55014 | 25.92148 | 37018 ft | 470 kts | 139° |
| 2026-05-05 18:04 | 44.49990 | 25.98025 | 37006 ft | 470 kts | 139° |
| 2026-05-05 18:04 | 44.44995 | 26.03856 | 37017 ft | 470 kts | 139° |
| 2026-05-05 18:05 | 44.39965 | 26.09708 | 37019 ft | 470 kts | 139° |
| 2026-05-05 18:05 | 44.34930 | 26.15550 | 37010 ft | 470 kts | 139° |
| 2026-05-05 18:06 | 44.29891 | 26.21386 | 37015 ft | 470 kts | 139° |
| 2026-05-05 18:06 | 44.24854 | 26.27198 | 37023 ft | 470 kts | 139° |
| 2026-05-05 18:07 | 44.19818 | 26.33000 | 37017 ft | 469 kts | 139° |
| 2026-05-05 18:07 | 44.14785 | 26.38799 | 37017 ft | 470 kts | 139° |
| 2026-05-05 18:08 | 44.09744 | 26.44600 | 37019 ft | 470 kts | 139° |
| 2026-05-05 18:08 | 44.04699 | 26.50381 | 37024 ft | 470 kts | 139° |
| 2026-05-05 18:09 | 43.99708 | 26.56261 | 37016 ft | 470 kts | 138° |
| 2026-05-05 18:09 | 43.94781 | 26.62242 | 37020 ft | 470 kts | 137° |
| 2026-05-05 18:10 | 43.89849 | 26.68207 | 37022 ft | 470 kts | 138° |
| 2026-05-05 18:10 | 43.84895 | 26.74126 | 37025 ft | 470 kts | 138° |
| 2026-05-05 18:11 | 43.79929 | 26.80016 | 37030 ft | 470 kts | 138° |
| 2026-05-05 18:11 | 43.74965 | 26.85908 | 37043 ft | 470 kts | 138° |
| 2026-05-05 18:12 | 43.69992 | 26.91805 | 37046 ft | 470 kts | 138° |
| 2026-05-05 18:12 | 43.65029 | 26.97676 | 37057 ft | 470 kts | 138° |
| 2026-05-05 18:13 | 43.60091 | 27.03507 | 37052 ft | 470 kts | 138° |
| 2026-05-05 18:13 | 43.55125 | 27.09360 | 37055 ft | 469 kts | 138° |
| 2026-05-05 18:14 | 43.50152 | 27.15195 | 37058 ft | 469 kts | 139° |
| 2026-05-05 18:14 | 43.45182 | 27.21012 | 37061 ft | 469 kts | 139° |
| 2026-05-05 18:15 | 43.40204 | 27.26832 | 37068 ft | 470 kts | 139° |
| 2026-05-05 18:15 | 43.35223 | 27.32643 | 37068 ft | 469 kts | 139° |
| 2026-05-05 18:16 | 43.30246 | 27.38441 | 37071 ft | 469 kts | 139° |
| 2026-05-05 18:16 | 43.25267 | 27.44229 | 37082 ft | 469 kts | 139° |
| 2026-05-05 18:17 | 43.20289 | 27.50001 | 37084 ft | 469 kts | 139° |
| 2026-05-05 18:17 | 43.15311 | 27.55762 | 37085 ft | 468 kts | 139° |
| 2026-05-05 18:18 | 43.10330 | 27.61508 | 37084 ft | 468 kts | 139° |
| 2026-05-05 18:18 | 43.05339 | 27.67248 | 37082 ft | 469 kts | 139° |
| 2026-05-05 18:19 | 43.00338 | 27.72990 | 37079 ft | 469 kts | 139° |
| 2026-05-05 18:19 | 42.95345 | 27.78713 | 37078 ft | 469 kts | 139° |
| 2026-05-05 18:20 | 42.90351 | 27.84431 | 37085 ft | 469 kts | 139° |
| 2026-05-05 18:20 | 42.85345 | 27.90145 | 37079 ft | 469 kts | 139° |
| 2026-05-05 18:21 | 42.80339 | 27.95841 | 37081 ft | 469 kts | 139° |
| 2026-05-05 18:21 | 42.75327 | 28.01537 | 37080 ft | 470 kts | 139° |
| 2026-05-05 18:22 | 42.70304 | 28.07229 | 37079 ft | 470 kts | 139° |
| 2026-05-05 18:22 | 42.65278 | 28.12914 | 37082 ft | 470 kts | 139° |
| 2026-05-05 18:23 | 42.60240 | 28.18608 | 37083 ft | 471 kts | 139° |
| 2026-05-05 18:23 | 42.56021 | 28.23359 | 37088 ft | 471 kts | 139° |
| 2026-05-05 18:24 | 42.50968 | 28.29032 | 37089 ft | 472 kts | 139° |
| 2026-05-05 18:24 | 42.45914 | 28.34707 | 37091 ft | 472 kts | 139° |
| 2026-05-05 18:25 | 42.40887 | 28.40349 | 37095 ft | 472 kts | 139° |
| 2026-05-05 18:25 | 42.35821 | 28.46009 | 37091 ft | 472 kts | 139° |
| 2026-05-05 18:26 | 42.30753 | 28.51642 | 37092 ft | 472 kts | 139° |
| 2026-05-05 18:26 | 42.25674 | 28.57283 | 37088 ft | 472 kts | 139° |
| 2026-05-05 18:27 | 42.20606 | 28.62921 | 37088 ft | 472 kts | 139° |
| 2026-05-05 18:27 | 42.15537 | 28.68543 | 37088 ft | 472 kts | 139° |
| 2026-05-05 18:28 | 42.08158 | 28.77291 | 37083 ft | 470 kts | 128° |
| 2026-05-05 18:28 | 42.04498 | 28.84560 | 37079 ft | 468 kts | 120° |
| 2026-05-05 18:29 | 42.01033 | 28.91969 | 37082 ft | 469 kts | 120° |
| 2026-05-05 18:29 | 41.97542 | 28.99369 | 37084 ft | 469 kts | 120° |
| 2026-05-05 18:30 | 41.94048 | 29.06778 | 37087 ft | 469 kts | 120° |
| 2026-05-05 18:30 | 41.90550 | 29.14188 | 37088 ft | 470 kts | 120° |
| 2026-05-05 18:31 | 41.87034 | 29.21601 | 37098 ft | 470 kts | 120° |
| 2026-05-05 18:31 | 41.83540 | 29.28955 | 37100 ft | 471 kts | 120° |
| 2026-05-05 18:32 | 41.80021 | 29.36352 | 37100 ft | 470 kts | 121° |
| 2026-05-05 18:32 | 41.76496 | 29.43739 | 37098 ft | 470 kts | 121° |
| 2026-05-05 18:33 | 41.72967 | 29.51106 | 37094 ft | 470 kts | 121° |
| 2026-05-05 18:33 | 41.69425 | 29.58488 | 37092 ft | 470 kts | 121° |
| 2026-05-05 18:34 | 41.65888 | 29.65846 | 37088 ft | 471 kts | 121° |
| 2026-05-05 18:34 | 41.62340 | 29.73211 | 37087 ft | 471 kts | 121° |
| 2026-05-05 18:35 | 41.58788 | 29.80561 | 37085 ft | 471 kts | 121° |
| 2026-05-05 18:35 | 41.55223 | 29.87897 | 37081 ft | 471 kts | 121° |
| 2026-05-05 18:36 | 41.51661 | 29.95241 | 37080 ft | 471 kts | 121° |
| 2026-05-05 18:36 | 41.48098 | 30.02590 | 37082 ft | 472 kts | 121° |
| 2026-05-05 18:37 | 41.44523 | 30.09925 | 37082 ft | 472 kts | 121° |
| 2026-05-05 18:37 | 41.40936 | 30.17246 | 37084 ft | 472 kts | 121° |
| 2026-05-05 18:38 | 41.37339 | 30.24577 | 37086 ft | 472 kts | 121° |
| 2026-05-05 18:38 | 41.33748 | 30.31899 | 37082 ft | 472 kts | 121° |
| 2026-05-05 18:39 | 41.30148 | 30.39212 | 37083 ft | 473 kts | 121° |
| 2026-05-05 18:39 | 41.26561 | 30.46479 | 37086 ft | 473 kts | 121° |
| 2026-05-05 18:40 | 41.22941 | 30.53780 | 37089 ft | 473 kts | 121° |
| 2026-05-05 18:40 | 41.19326 | 30.61068 | 37089 ft | 473 kts | 121° |
| 2026-05-05 18:41 | 41.15698 | 30.68357 | 37072 ft | 473 kts | 121° |
| 2026-05-05 18:41 | 41.12059 | 30.75643 | 37080 ft | 473 kts | 122° |
| 2026-05-05 18:42 | 41.08426 | 30.82912 | 37083 ft | 473 kts | 121° |
| 2026-05-05 18:42 | 41.04792 | 30.90188 | 37081 ft | 473 kts | 121° |
| 2026-05-05 18:43 | 41.01363 | 30.97625 | 37079 ft | 472 kts | 118° |
| 2026-05-05 18:43 | 40.98138 | 31.05191 | 37088 ft | 472 kts | 117° |
| 2026-05-05 18:44 | 40.94893 | 31.12765 | 37089 ft | 473 kts | 118° |
| 2026-05-05 18:44 | 40.91578 | 31.20292 | 37088 ft | 473 kts | 118° |
| 2026-05-05 18:45 | 40.88226 | 31.27782 | 37096 ft | 474 kts | 118° |
| 2026-05-05 18:45 | 40.84877 | 31.35278 | 37094 ft | 474 kts | 118° |
| 2026-05-05 18:46 | 40.81534 | 31.42787 | 37098 ft | 474 kts | 118° |
| 2026-05-05 18:46 | 40.78193 | 31.50287 | 37090 ft | 474 kts | 118° |
| 2026-05-05 18:47 | 40.74839 | 31.57788 | 37087 ft | 474 kts | 119° |
| 2026-05-05 18:47 | 40.71475 | 31.65270 | 37084 ft | 474 kts | 119° |
| 2026-05-05 18:48 | 40.68108 | 31.72741 | 37084 ft | 474 kts | 119° |
| 2026-05-05 18:48 | 40.64744 | 31.80208 | 37080 ft | 474 kts | 119° |
| 2026-05-05 18:49 | 40.61371 | 31.87683 | 37069 ft | 475 kts | 119° |
| 2026-05-05 18:49 | 40.57989 | 31.95147 | 37068 ft | 475 kts | 119° |
| 2026-05-05 18:50 | 40.54594 | 32.02604 | 37066 ft | 475 kts | 119° |
| 2026-05-05 18:50 | 40.51224 | 32.10005 | 36650 ft | 472 kts | 119° |
| 2026-05-05 18:51 | 40.49507 | 32.13774 | 35137 ft | 478 kts | 119° |
| 2026-05-05 18:51 | 40.47785 | 32.17549 | 33581 ft | 485 kts | 118° |
| 2026-05-05 18:51 | 40.46040 | 32.21369 | 31933 ft | 488 kts | 118° |
| 2026-05-05 18:51 | 40.44291 | 32.25189 | 30480 ft | 487 kts | 118° |
| 2026-05-05 18:52 | 40.42574 | 32.28927 | 29119 ft | 481 kts | 118° |
| 2026-05-05 18:52 | 40.40866 | 32.32638 | 27879 ft | 471 kts | 118° |
| 2026-05-05 18:52 | 40.39187 | 32.36279 | 26609 ft | 463 kts | 118° |
| 2026-05-05 18:52 | 40.37529 | 32.39875 | 25400 ft | 458 kts | 118° |
| 2026-05-05 18:53 | 40.35897 | 32.43417 | 24512 ft | 452 kts | 118° |
| 2026-05-05 18:53 | 40.34282 | 32.46926 | 23645 ft | 446 kts | 118° |
| 2026-05-05 18:53 | 40.32887 | 32.49953 | 22812 ft | 441 kts | 118° |
| 2026-05-05 18:53 | 40.31308 | 32.53375 | 22011 ft | 436 kts | 118° |
| 2026-05-05 18:54 | 40.29748 | 32.56752 | 21239 ft | 431 kts | 118° |
| 2026-05-05 18:54 | 40.28207 | 32.60078 | 20497 ft | 421 kts | 118° |
| 2026-05-05 18:54 | 40.26733 | 32.63243 | 20258 ft | 392 kts | 118° |
| 2026-05-05 18:54 | 40.25358 | 32.66188 | 20130 ft | 366 kts | 118° |
| 2026-05-05 18:55 | 40.24074 | 32.68933 | 20002 ft | 342 kts | 118° |
| 2026-05-05 18:55 | 40.22868 | 32.71512 | 19835 ft | 324 kts | 118° |
| 2026-05-05 18:55 | 40.21723 | 32.73973 | 19562 ft | 313 kts | 118° |
| 2026-05-05 18:55 | 40.20600 | 32.76395 | 19317 ft | 309 kts | 118° |
| 2026-05-05 18:56 | 40.19720 | 32.78912 | 19082 ft | 301 kts | 99° |
| 2026-05-05 18:56 | 40.19610 | 32.81592 | 18845 ft | 291 kts | 77° |
| 2026-05-05 18:56 | 40.20239 | 32.84054 | 18604 ft | 283 kts | 56° |
| 2026-05-05 18:56 | 40.21462 | 32.86022 | 18369 ft | 277 kts | 36° |
| 2026-05-05 18:57 | 40.23006 | 32.87517 | 18113 ft | 276 kts | 33° |
| 2026-05-05 18:57 | 40.24563 | 32.88990 | 17818 ft | 276 kts | 33° |
| 2026-05-05 18:57 | 40.26112 | 32.90463 | 17408 ft | 275 kts | 33° |
| 2026-05-05 18:57 | 40.27659 | 32.91936 | 17023 ft | 274 kts | 34° |
| 2026-05-05 18:58 | 40.29190 | 32.93396 | 16537 ft | 271 kts | 34° |
| 2026-05-05 18:58 | 40.30699 | 32.94835 | 15748 ft | 267 kts | 34° |
| 2026-05-05 18:58 | 40.32199 | 32.96263 | 14926 ft | 266 kts | 34° |
| 2026-05-05 18:58 | 40.33694 | 32.97688 | 14139 ft | 265 kts | 35° |
| 2026-05-05 18:59 | 40.35184 | 32.99109 | 13300 ft | 264 kts | 35° |
| 2026-05-05 18:59 | 40.36662 | 33.00528 | 12468 ft | 262 kts | 35° |
| 2026-05-05 18:59 | 40.38119 | 33.01935 | 11663 ft | 258 kts | 37° |
| 2026-05-05 18:59 | 40.39370 | 33.03604 | 10871 ft | 257 kts | 55° |
| 2026-05-05 19:00 | 40.40063 | 33.05735 | 10109 ft | 254 kts | 80° |
| 2026-05-05 19:00 | 40.40004 | 33.08013 | 9339 ft | 250 kts | 107° |
| 2026-05-05 19:00 | 40.39184 | 33.10009 | 9130 ft | 253 kts | 132° |
| 2026-05-05 19:00 | 40.37795 | 33.11425 | 8705 ft | 258 kts | 157° |
| 2026-05-05 19:01 | 40.36041 | 33.11869 | 8013 ft | 259 kts | 184° |
| 2026-05-05 19:01 | 40.34302 | 33.11648 | 7821 ft | 241 kts | 186° |
| 2026-05-05 19:01 | 40.32686 | 33.11454 | 7761 ft | 224 kts | 186° |
| 2026-05-05 19:01 | 40.31176 | 33.11283 | 7703 ft | 214 kts | 186° |
| 2026-05-05 19:02 | 40.29697 | 33.11116 | 7432 ft | 213 kts | 186° |
| 2026-05-05 19:02 | 40.28210 | 33.10948 | 7061 ft | 213 kts | 185° |
| 2026-05-05 19:02 | 40.26826 | 33.10796 | 7019 ft | 188 kts | 185° |
| 2026-05-05 19:02 | 40.25564 | 33.10657 | 6910 ft | 177 kts | 185° |
| 2026-05-05 19:03 | 40.24382 | 33.10320 | 6801 ft | 172 kts | 207° |
| 2026-05-05 19:03 | 40.23427 | 33.09494 | 6719 ft | 155 kts | 218° |
| 2026-05-05 19:03 | 40.22845 | 33.08937 | 6368 ft | 162 kts | 218° |
| 2026-05-05 19:03 | 40.21893 | 33.08026 | 5621 ft | 177 kts | 218° |
| 2026-05-05 19:04 | 40.20916 | 33.07093 | 5302 ft | 164 kts | 218° |
| 2026-05-05 19:04 | 40.20047 | 33.06265 | 5116 ft | 148 kts | 218° |
| 2026-05-05 19:04 | 40.19231 | 33.05478 | 4821 ft | 144 kts | 219° |
| 2026-05-05 19:04 | 40.18419 | 33.04719 | 4483 ft | 142 kts | 215° |
| 2026-05-05 19:05 | 40.17585 | 33.04048 | 4171 ft | 139 kts | 213° |
| 2026-05-05 19:05 | 40.16781 | 33.03400 | 3903 ft | 134 kts | 215° |
| 2026-05-05 19:05 | 40.16018 | 33.02721 | 3637 ft | 132 kts | 218° |
| 2026-05-05 19:05 | 40.15284 | 33.02036 | 3449 ft | 128 kts | 219° |
| 2026-05-05 19:06 | 40.14510 | 33.01281 | 3256 ft | 148 kts | 219° |
| 2026-05-05 19:06 | 40.13697 | 33.00504 | 3143 ft | 134 kts | 218° |
| 2026-05-05 19:06 | 40.13024 | 32.99860 | 3125 ft | 99 kts | 217° |
| 2026-05-05 19:06 | 40.12645 | 32.99498 | 3122 ft | 27 kts | 216° |
| 2026-05-05 19:07 | 40.12551 | 32.99409 | 3121 ft | 16 kts | 216° |
| 2026-05-05 19:07 | 40.12452 | 32.99314 | 3119 ft | 19 kts | 217° |
| 2026-05-05 19:07 | 40.12324 | 32.99230 | 3118 ft | 22 kts | 198° |
| 2026-05-05 19:07 | 40.12167 | 32.99197 | 3117 ft | 24 kts | 186° |
| 2026-05-05 19:08 | 40.12013 | 32.99175 | 3115 ft | 15 kts | 188° |
| 2026-05-05 19:08 | 40.11913 | 32.99106 | 3114 ft | 18 kts | 216° |
| 2026-05-05 19:08 | 40.11827 | 32.99039 | 3114 ft | 12 kts | 183° |
| 2026-05-05 19:08 | 40.11767 | 32.99100 | 3113 ft | 11 kts | 135° |
| 2026-05-05 19:09 | 40.11713 | 32.99150 | 3113 ft | 9 kts | 121° |
| 2026-05-05 19:09 | 40.11692 | 32.99212 | 3113 ft | 7 kts | 147° |
| 2026-05-05 19:09 | 40.11666 | 32.99226 | 3113 ft | 1 kts | 157° |
| 2026-05-05 19:09 | 40.11654 | 32.99234 | 3113 ft | 2 kts | 155° |
| 2026-05-05 19:10 | 40.11652 | 32.99235 | 3113 ft | 0 kts | 155° |